Time;durP1;ratioP1;P1;durP2;ratioP2;P2;SDS_P1;SDS_P2;PMS_P1;PMS_P2;Temp;Humidity;BMP_temperature;BMP_pressure;BME280_temperature;BME280_humidity;BME280_pressure;Samples;Min_cycle;Max_cycle;Signal;HPM_P1;HPM_P2
2023/02/18 00:01:25;;;;;;;23.33;12.15;;;;;;;;;;5017391;28;20029;-81
2023/02/18 00:03:51;;;;;;;23.23;12.82;;;;;;;;;;5019748;28;20091;-81
2023/02/18 00:06:22;;;;;;;26.65;13.30;;;;;;;;;;5028967;28;20025;-83
2023/02/18 00:08:49;;;;;;;29.50;13.43;;;;;;;;;;5022200;28;20030;-82
2023/02/18 00:11:16;;;;;;;26.58;13.00;;;;;;;;;;5026008;28;20079;-82
2023/02/18 00:13:42;;;;;;;27.27;13.18;;;;;;;;;;5025075;28;20474;-83
2023/02/18 00:16:10;;;;;;;27.67;13.38;;;;;;;;;;5026826;28;20079;-82
2023/02/18 00:18:37;;;;;;;27.02;13.15;;;;;;;;;;5024932;28;20034;-82
2023/02/18 00:21:04;;;;;;;24.55;13.20;;;;;;;;;;5027032;28;20376;-81
2023/02/18 00:23:30;;;;;;;29.40;13.00;;;;;;;;;;5018798;28;20056;-82
2023/02/18 00:26:04;;;;;;;26.65;12.55;;;;;;;;;;5025164;28;20473;-81
2023/02/18 00:28:30;;;;;;;28.02;13.45;;;;;;;;;;5027093;28;20025;-82
2023/02/18 00:30:55;;;;;;;27.50;13.38;;;;;;;;;;5027879;28;20026;-83
2023/02/18 00:33:21;;;;;;;24.80;12.90;;;;;;;;;;5028078;28;20025;-82
2023/02/18 00:35:47;;;;;;;26.55;12.95;;;;;;;;;;5020669;28;20036;-83
2023/02/18 00:38:12;;;;;;;26.65;12.52;;;;;;;;;;5024055;28;20032;-82
2023/02/18 00:40:39;;;;;;;30.08;12.85;;;;;;;;;;5026145;28;20492;-82
2023/02/18 00:43:04;;;;;;;23.65;12.52;;;;;;;;;;5019221;28;20142;-82
2023/02/18 00:45:30;;;;;;;24.38;11.43;;;;;;;;;;5024568;28;20064;-82
2023/02/18 00:47:55;;;;;;;27.17;13.00;;;;;;;;;;5022016;28;20115;-82
2023/02/18 00:50:21;;;;;;;25.83;11.98;;;;;;;;;;5030911;28;20377;-83
2023/02/18 00:52:46;;;;;;;25.63;12.57;;;;;;;;;;5026673;28;20492;-82
2023/02/18 00:55:12;;;;;;;27.65;12.27;;;;;;;;;;5027913;28;20091;-82
2023/02/18 00:57:37;;;;;;;24.25;11.52;;;;;;;;;;5021997;28;20162;-82
2023/02/18 01:00:05;;;;;;;25.98;12.27;;;;;;;;;;5021874;28;20454;-82
2023/02/18 01:02:30;;;;;;;24.58;12.52;;;;;;;;;;5023383;28;20505;-83
2023/02/18 01:04:55;;;;;;;27.00;13.38;;;;;;;;;;5019044;28;20025;-80
2023/02/18 01:07:21;;;;;;;24.05;12.52;;;;;;;;;;5024091;28;20045;-82
2023/02/18 01:09:46;;;;;;;25.35;12.48;;;;;;;;;;5025189;28;20130;-82
2023/02/18 01:12:12;;;;;;;26.27;12.45;;;;;;;;;;5022117;28;20449;-83
2023/02/18 01:14:37;;;;;;;25.77;12.48;;;;;;;;;;5023822;28;20036;-82
2023/02/18 01:17:02;;;;;;;25.00;12.43;;;;;;;;;;5026940;28;20049;-83
2023/02/18 01:19:28;;;;;;;25.63;11.98;;;;;;;;;;5027878;28;20021;-83
2023/02/18 01:21:53;;;;;;;23.98;12.07;;;;;;;;;;5027088;28;20033;-82
2023/02/18 01:24:18;;;;;;;26.67;12.35;;;;;;;;;;5023321;28;20047;-83
2023/02/18 01:26:44;;;;;;;24.25;12.68;;;;;;;;;;5030611;28;20477;-83
2023/02/18 01:29:09;;;;;;;23.50;12.15;;;;;;;;;;5026967;28;20021;-83
2023/02/18 01:31:34;;;;;;;28.33;12.50;;;;;;;;;;5023231;28;20505;-80
2023/02/18 01:34:00;;;;;;;23.13;12.05;;;;;;;;;;5024048;28;20030;-82
2023/02/18 01:36:25;;;;;;;23.08;12.30;;;;;;;;;;5024569;28;20025;-83
2023/02/18 01:38:52;;;;;;;27.83;12.70;;;;;;;;;;5019254;28;20030;-83
2023/02/18 01:41:18;;;;;;;24.60;12.57;;;;;;;;;;5023745;28;20176;-83
2023/02/18 01:43:43;;;;;;;27.70;13.15;;;;;;;;;;5023380;28;20124;-82
2023/02/18 01:46:18;;;;;;;24.15;12.05;;;;;;;;;;5021895;28;20029;-82
2023/02/18 01:48:49;;;;;;;23.90;11.90;;;;;;;;;;5019986;28;20037;-81
2023/02/18 01:51:38;;;;;;;25.00;12.05;;;;;;;;;;5018119;28;20079;-83
2023/02/18 01:54:09;;;;;;;23.30;10.90;;;;;;;;;;5019632;28;20053;-80
2023/02/18 01:57:02;;;;;;;22.45;11.10;;;;;;;;;;5020242;28;20288;-81
2023/02/18 01:59:35;;;;;;;24.60;11.43;;;;;;;;;;5022184;28;20733;-82
2023/02/18 02:02:02;;;;;;;24.17;12.38;;;;;;;;;;5018312;28;20026;-82
2023/02/18 02:04:27;;;;;;;25.23;12.15;;;;;;;;;;5022198;28;20030;-81
2023/02/18 02:06:53;;;;;;;24.20;12.13;;;;;;;;;;5018223;28;20034;-83
2023/02/18 02:09:21;;;;;;;23.83;10.93;;;;;;;;;;5020047;28;20033;-80
2023/02/18 02:12:12;;;;;;;23.17;11.90;;;;;;;;;;5010325;28;20029;-83
2023/02/18 02:15:00;;;;;;;24.27;11.35;;;;;;;;;;5020250;28;20030;-83
2023/02/18 02:17:53;;;;;;;26.33;11.35;;;;;;;;;;5023747;28;20325;-83
2023/02/18 02:20:36;;;;;;;27.08;11.63;;;;;;;;;;5024324;28;20029;-80
2023/02/18 02:23:16;;;;;;;23.77;11.00;;;;;;;;;;5021195;28;20029;-83
2023/02/18 02:25:53;;;;;;;26.42;11.18;;;;;;;;;;5023881;28;20024;-81
2023/02/18 02:28:55;;;;;;;22.15;11.27;;;;;;;;;;5024283;28;20540;-82
2023/02/18 02:31:32;;;;;;;26.17;10.85;;;;;;;;;;5022712;28;20056;-82
2023/02/18 02:34:27;;;;;;;24.65;11.55;;;;;;;;;;5021703;28;20477;-82
2023/02/18 02:37:24;;;;;;;22.30;10.82;;;;;;;;;;5024641;28;20374;-82
2023/02/18 02:40:23;;;;;;;20.80;10.77;;;;;;;;;;5024186;28;20079;-83
2023/02/18 02:43:11;;;;;;;25.65;11.25;;;;;;;;;;5025629;28;20031;-81
2023/02/18 02:45:58;;;;;;;22.38;10.55;;;;;;;;;;5020083;28;20036;-83
2023/02/18 02:48:31;;;;;;;22.75;10.23;;;;;;;;;;5020019;28;20040;-82
2023/02/18 02:51:03;;;;;;;;;;;;;;;;;;5014663;28;20041;-79
2023/02/18 02:53:34;;;;;;;21.23;10.40;;;;;;;;;;5022121;28;20380;-82
2023/02/18 02:55:59;;;;;;;19.60;10.10;;;;;;;;;;5019321;28;20466;-80
2023/02/18 02:58:25;;;;;;;23.00;10.85;;;;;;;;;;5026187;28;20035;-81
2023/02/18 03:01:03;;;;;;;25.38;10.82;;;;;;;;;;5020794;28;20032;-80
2023/02/18 03:03:44;;;;;;;24.88;11.90;;;;;;;;;;5022129;28;20367;-81
2023/02/18 03:06:34;;;;;;;30.75;13.45;;;;;;;;;;5023984;28;20064;-81
2023/02/18 03:09:29;;;;;;;26.02;13.15;;;;;;;;;;5020754;28;20382;-81
2023/02/18 03:12:07;;;;;;;28.65;14.13;;;;;;;;;;5018706;28;20489;-80
2023/02/18 03:15:10;;;;;;;29.58;14.30;;;;;;;;;;5024123;28;20528;-81
2023/02/18 03:18:03;;;;;;;28.92;12.40;;;;;;;;;;5009293;28;20401;-81
2023/02/18 03:20:40;;;;;;;25.73;11.82;;;;;;;;;;5020362;28;20091;-79
2023/02/18 03:23:15;;;;;;;25.38;11.75;;;;;;;;;;5020814;28;20021;-81
2023/02/18 03:25:41;;;;;;;21.02;10.65;;;;;;;;;;5022770;28;20061;-81
2023/02/18 03:28:12;;;;;;;24.52;11.60;;;;;;;;;;5020249;28;20038;-81
2023/02/18 03:30:45;;;;;;;26.02;12.52;;;;;;;;;;5021302;28;20068;-80
2023/02/18 03:33:15;;;;;;;26.52;11.80;;;;;;;;;;5019034;28;20493;-80
2023/02/18 03:35:42;;;;;;;24.77;11.75;;;;;;;;;;5034847;28;20029;-81
2023/02/18 03:38:43;;;;;;;21.50;10.77;;;;;;;;;;5022067;28;20029;-81
2023/02/18 03:41:09;;;;;;;21.02;10.48;;;;;;;;;;5024471;28;20049;-80
2023/02/18 03:43:34;;;;;;;18.55;9.05;;;;;;;;;;5017853;28;20034;-80
2023/02/18 03:46:01;;;;;;;18.70;9.48;;;;;;;;;;5022923;28;20030;-80
2023/02/18 03:48:27;;;;;;;17.25;8.10;;;;;;;;;;5017940;28;20041;-79
2023/02/18 03:50:52;;;;;;;16.45;8.05;;;;;;;;;;5014487;28;20028;-80
2023/02/18 03:53:18;;;;;;;17.27;7.93;;;;;;;;;;5013630;28;20026;-80
2023/02/18 03:55:43;;;;;;;15.40;7.13;;;;;;;;;;5016298;28;20124;-80
2023/02/18 03:58:08;;;;;;;14.85;7.65;;;;;;;;;;5017651;28;20029;-80
2023/02/18 04:00:34;;;;;;;13.88;6.50;;;;;;;;;;5010645;28;20478;-80
2023/02/18 04:02:59;;;;;;;14.13;6.82;;;;;;;;;;5011710;28;20032;-79
2023/02/18 04:05:25;;;;;;;13.07;6.60;;;;;;;;;;5008402;28;20804;-79
2023/02/18 04:07:50;;;;;;;10.50;5.10;;;;;;;;;;5018242;28;20029;-80
2023/02/18 04:10:16;;;;;;;10.77;5.38;;;;;;;;;;5023291;28;20068;-80
2023/02/18 04:12:41;;;;;;;10.45;5.55;;;;;;;;;;5022583;28;20057;-79
2023/02/18 04:15:07;;;;;;;10.35;5.28;;;;;;;;;;5021402;28;20040;-79
2023/02/18 04:17:33;;;;;;;8.70;4.82;;;;;;;;;;5017473;28;20104;-80
2023/02/18 04:19:58;;;;;;;9.35;4.57;;;;;;;;;;5020588;28;20488;-80
2023/02/18 04:22:24;;;;;;;10.07;4.90;;;;;;;;;;5021574;28;20105;-80
2023/02/18 04:24:49;;;;;;;8.45;4.43;;;;;;;;;;5030112;28;20033;-78
2023/02/18 04:27:15;;;;;;;7.47;4.18;;;;;;;;;;5025583;28;20044;-80
2023/02/18 04:29:40;;;;;;;8.35;4.60;;;;;;;;;;5021371;28;20038;-79
2023/02/18 04:32:05;;;;;;;8.52;4.15;;;;;;;;;;5022974;28;20044;-81
2023/02/18 04:34:31;;;;;;;7.88;3.90;;;;;;;;;;5029241;28;20489;-80
2023/02/18 04:36:56;;;;;;;10.05;4.13;;;;;;;;;;5032113;28;20104;-80
2023/02/18 04:39:22;;;;;;;8.50;4.13;;;;;;;;;;5035816;28;20424;-80
2023/02/18 04:41:47;;;;;;;8.75;4.75;;;;;;;;;;5035589;28;20029;-80
2023/02/18 04:44:13;;;;;;;8.10;4.40;;;;;;;;;;5033755;28;20112;-81
2023/02/18 04:46:38;;;;;;;8.02;4.05;;;;;;;;;;5034318;28;20025;-80
2023/02/18 04:49:04;;;;;;;6.88;3.85;;;;;;;;;;5032375;28;20116;-80
2023/02/18 04:51:29;;;;;;;8.35;4.32;;;;;;;;;;5022720;28;20473;-80
2023/02/18 04:53:54;;;;;;;6.95;4.00;;;;;;;;;;5030651;28;20021;-80
2023/02/18 04:56:20;;;;;;;7.43;4.03;;;;;;;;;;5031926;28;20018;-80
2023/02/18 04:58:45;;;;;;;9.90;4.15;;;;;;;;;;5034073;28;20124;-80
2023/02/18 05:01:11;;;;;;;8.15;4.18;;;;;;;;;;5035003;28;20386;-81
2023/02/18 05:03:37;;;;;;;8.13;4.35;;;;;;;;;;5032800;28;20033;-80
2023/02/18 05:06:02;;;;;;;7.47;4.15;;;;;;;;;;5031883;28;20022;-80
2023/02/18 05:08:28;;;;;;;8.75;4.70;;;;;;;;;;5035043;28;20481;-80
2023/02/18 05:10:53;;;;;;;6.47;3.83;;;;;;;;;;5032945;28;20061;-80
2023/02/18 05:13:19;;;;;;;7.88;4.38;;;;;;;;;;5035225;28;20030;-80
2023/02/18 05:15:44;;;;;;;7.70;4.10;;;;;;;;;;5032606;28;20746;-80
2023/02/18 05:18:09;;;;;;;9.00;4.47;;;;;;;;;;5031039;28;20033;-80
2023/02/18 05:20:35;;;;;;;7.95;3.90;;;;;;;;;;5033726;28;20698;-80
2023/02/18 05:23:00;;;;;;;7.53;4.55;;;;;;;;;;5033217;28;20025;-80
2023/02/18 05:25:26;;;;;;;6.95;3.85;;;;;;;;;;5034365;28;20543;-80
2023/02/18 05:27:51;;;;;;;7.43;4.13;;;;;;;;;;5026975;28;20033;-80
2023/02/18 05:30:17;;;;;;;6.82;3.53;;;;;;;;;;5034357;28;20064;-80
2023/02/18 05:32:43;;;;;;;7.45;3.88;;;;;;;;;;5035308;28;20033;-80
2023/02/18 05:35:08;;;;;;;7.20;4.10;;;;;;;;;;5029889;28;20040;-79
2023/02/18 05:37:34;;;;;;;7.20;3.75;;;;;;;;;;5037947;28;20106;-79
2023/02/18 05:39:59;;;;;;;7.82;3.60;;;;;;;;;;5034834;28;20098;-79
2023/02/18 05:42:25;;;;;;;6.07;3.67;;;;;;;;;;5035159;28;20033;-80
2023/02/18 05:44:50;;;;;;;6.35;3.50;;;;;;;;;;5031982;28;20025;-80
2023/02/18 05:47:16;;;;;;;5.95;3.42;;;;;;;;;;5035964;28;20056;-80
2023/02/18 05:49:43;;;;;;;6.35;3.20;;;;;;;;;;5037118;28;20021;-79
2023/02/18 05:52:10;;;;;;;7.43;3.70;;;;;;;;;;5044068;28;20024;-79
2023/02/18 05:54:36;;;;;;;6.47;3.20;;;;;;;;;;5035956;28;20030;-79
2023/02/18 05:57:01;;;;;;;6.55;3.40;;;;;;;;;;5035963;28;20026;-79
2023/02/18 05:59:27;;;;;;;6.65;3.42;;;;;;;;;;5034667;28;20022;-80
2023/02/18 06:01:53;;;;;;;6.75;3.53;;;;;;;;;;5034223;28;20060;-79
2023/02/18 06:04:19;;;;;;;6.40;3.40;;;;;;;;;;5031236;28;20041;-80
2023/02/18 06:06:45;;;;;;;6.15;3.47;;;;;;;;;;5032685;28;20055;-80
2023/02/18 06:09:10;;;;;;;7.75;3.50;;;;;;;;;;5036229;28;20049;-80
2023/02/18 06:11:36;;;;;;;5.65;3.00;;;;;;;;;;5037214;28;20432;-79
2023/02/18 06:14:02;;;;;;;6.05;3.28;;;;;;;;;;5033920;28;20042;-80
2023/02/18 06:16:28;;;;;;;6.50;3.05;;;;;;;;;;5031633;28;20067;-79
2023/02/18 06:18:54;;;;;;;6.50;3.15;;;;;;;;;;5032914;28;20104;-80
2023/02/18 06:21:19;;;;;;;4.38;2.53;;;;;;;;;;5036434;28;20032;-80
2023/02/18 06:23:44;;;;;;;5.40;2.80;;;;;;;;;;5034097;28;20025;-78
2023/02/18 06:26:10;;;;;;;5.05;2.72;;;;;;;;;;5035807;28;20052;-79
2023/02/18 06:28:36;;;;;;;5.22;2.83;;;;;;;;;;5030760;28;20042;-80
2023/02/18 06:31:01;;;;;;;4.70;2.40;;;;;;;;;;5028945;28;20033;-79
2023/02/18 06:33:26;;;;;;;5.30;2.70;;;;;;;;;;5033348;28;20030;-80
2023/02/18 06:35:58;;;;;;;4.13;2.30;;;;;;;;;;5031720;28;20034;-80
2023/02/18 06:38:23;;;;;;;4.40;2.38;;;;;;;;;;5034483;28;20017;-80
2023/02/18 06:40:49;;;;;;;5.03;2.60;;;;;;;;;;5029230;28;20026;-79
2023/02/18 06:43:14;;;;;;;4.80;2.25;;;;;;;;;;5034157;28;20101;-80
2023/02/18 06:45:40;;;;;;;4.38;2.05;;;;;;;;;;5034757;28;20021;-80
2023/02/18 06:48:05;;;;;;;4.72;2.40;;;;;;;;;;5035145;28;20551;-79
2023/02/18 06:50:31;;;;;;;5.70;2.70;;;;;;;;;;5032731;28;20021;-79
2023/02/18 06:52:58;;;;;;;5.18;2.38;;;;;;;;;;5028591;28;20034;-80
2023/02/18 06:55:24;;;;;;;4.90;2.35;;;;;;;;;;5035562;28;20129;-79
2023/02/18 06:57:49;;;;;;;5.20;2.55;;;;;;;;;;5028422;28;20533;-79
2023/02/18 07:00:15;;;;;;;4.93;2.50;;;;;;;;;;5031330;28;20013;-80
2023/02/18 07:02:41;;;;;;;4.45;2.00;;;;;;;;;;5031600;28;20026;-80
2023/02/18 07:05:06;;;;;;;3.83;1.92;;;;;;;;;;5033574;28;20022;-79
2023/02/18 07:07:32;;;;;;;4.63;2.30;;;;;;;;;;5035580;28;20474;-80
2023/02/18 07:09:57;;;;;;;3.63;1.88;;;;;;;;;;5033815;28;20029;-78
2023/02/18 07:12:22;;;;;;;5.43;2.40;;;;;;;;;;5034100;28;20029;-79
2023/02/18 07:14:48;;;;;;;4.30;1.90;;;;;;;;;;5033839;28;20021;-79
2023/02/18 07:17:13;;;;;;;4.68;1.98;;;;;;;;;;5034169;28;20029;-79
2023/02/18 07:19:39;;;;;;;4.18;1.83;;;;;;;;;;5034476;28;20032;-79
2023/02/18 07:22:05;;;;;;;3.33;1.73;;;;;;;;;;5032389;28;20030;-79
2023/02/18 07:24:30;;;;;;;3.63;1.70;;;;;;;;;;5025469;28;20013;-79
2023/02/18 07:26:56;;;;;;;3.88;1.58;;;;;;;;;;5030649;28;20025;-79
2023/02/18 07:29:21;;;;;;;5.35;2.10;;;;;;;;;;5032552;28;20047;-79
2023/02/18 07:31:46;;;;;;;4.50;2.10;;;;;;;;;;5032857;28;20022;-80
2023/02/18 07:34:12;;;;;;;4.03;2.15;;;;;;;;;;5034473;28;20032;-80
2023/02/18 07:36:37;;;;;;;6.25;2.40;;;;;;;;;;5034700;28;20017;-80
2023/02/18 07:39:03;;;;;;;5.10;2.63;;;;;;;;;;5030504;28;20021;-79
2023/02/18 07:41:28;;;;;;;6.45;3.67;;;;;;;;;;5033529;28;20029;-80
2023/02/18 07:43:54;;;;;;;8.05;4.40;;;;;;;;;;5035342;28;20466;-80
2023/02/18 07:46:19;;;;;;;10.88;4.75;;;;;;;;;;5034910;28;20520;-80
2023/02/18 07:48:45;;;;;;;9.25;5.30;;;;;;;;;;5037428;28;20028;-79
2023/02/18 07:51:12;;;;;;;7.45;4.25;;;;;;;;;;5030348;28;20045;-80
2023/02/18 07:53:38;;;;;;;11.15;5.15;;;;;;;;;;5038645;28;20025;-80
2023/02/18 07:56:04;;;;;;;8.85;4.70;;;;;;;;;;5038678;28;20117;-80
2023/02/18 07:58:32;;;;;;;9.88;4.40;;;;;;;;;;5037967;28;20029;-80
2023/02/18 08:00:58;;;;;;;9.88;4.40;;;;;;;;;;5033822;28;20034;-79
2023/02/18 08:03:27;;;;;;;11.15;5.38;;;;;;;;;;5031352;28;20021;-80
2023/02/18 08:05:52;;;;;;;9.52;4.93;;;;;;;;;;5037945;28;20018;-80
2023/02/18 08:08:20;;;;;;;12.98;4.97;;;;;;;;;;5037652;28;20032;-80
2023/02/18 08:10:46;;;;;;;9.48;4.57;;;;;;;;;;5034098;28;20033;-80
2023/02/18 08:13:12;;;;;;;13.70;5.03;;;;;;;;;;5036173;28;20033;-80
2023/02/18 08:15:38;;;;;;;8.90;4.68;;;;;;;;;;5034243;28;20018;-81
2023/02/18 08:18:05;;;;;;;9.85;4.45;;;;;;;;;;5040142;28;20115;-82
2023/02/18 08:20:31;;;;;;;9.35;4.55;;;;;;;;;;5032389;28;20029;-82
2023/02/18 08:22:56;;;;;;;10.55;4.80;;;;;;;;;;5037417;28;20382;-82
2023/02/18 08:25:22;;;;;;;8.80;4.05;;;;;;;;;;5037589;28;20052;-81
2023/02/18 08:27:47;;;;;;;10.00;3.90;;;;;;;;;;5034281;28;20060;-80
2023/02/18 08:30:13;;;;;;;13.38;4.07;;;;;;;;;;5037074;28;20120;-80
2023/02/18 08:32:38;;;;;;;10.85;3.70;;;;;;;;;;5038333;28;20033;-80
2023/02/18 08:35:04;;;;;;;8.68;3.40;;;;;;;;;;5033058;28;20074;-80
2023/02/18 08:37:30;;;;;;;9.27;3.20;;;;;;;;;;5034698;28;20052;-80
2023/02/18 08:39:55;;;;;;;8.10;3.38;;;;;;;;;;5033966;28;20350;-81
2023/02/18 08:42:21;;;;;;;9.68;3.70;;;;;;;;;;5030172;28;20026;-80
2023/02/18 08:44:46;;;;;;;7.80;3.22;;;;;;;;;;5036547;28;20052;-81
2023/02/18 08:47:12;;;;;;;10.30;3.15;;;;;;;;;;5030742;28;20017;-81
2023/02/18 08:49:37;;;;;;;9.40;2.80;;;;;;;;;;5030496;28;20033;-80
2023/02/18 08:52:03;;;;;;;12.82;3.10;;;;;;;;;;5034295;28;20477;-80
2023/02/18 08:54:29;;;;;;;9.88;2.70;;;;;;;;;;5031784;28;20371;-81
2023/02/18 08:56:56;;;;;;;7.60;2.95;;;;;;;;;;5023880;28;20033;-80
2023/02/18 08:59:23;;;;;;;8.45;2.75;;;;;;;;;;5034435;28;20013;-80
2023/02/18 09:01:48;;;;;;;10.52;3.08;;;;;;;;;;5039335;28;20036;-80
2023/02/18 09:04:13;;;;;;;9.10;2.80;;;;;;;;;;5036037;28;20025;-80
2023/02/18 09:06:39;;;;;;;8.55;3.05;;;;;;;;;;5034546;28;20029;-79
2023/02/18 09:09:04;;;;;;;7.55;2.90;;;;;;;;;;5033975;28;20025;-80
2023/02/18 09:11:30;;;;;;;10.13;3.17;;;;;;;;;;5025755;28;20079;-80
2023/02/18 09:13:55;;;;;;;8.60;3.15;;;;;;;;;;5031577;28;20449;-80
2023/02/18 09:16:21;;;;;;;10.40;2.92;;;;;;;;;;5036849;28;20025;-79
2023/02/18 09:18:47;;;;;;;11.98;3.55;;;;;;;;;;5032282;28;20036;-79
2023/02/18 09:21:14;;;;;;;9.65;3.05;;;;;;;;;;5034303;28;20532;-80
2023/02/18 09:23:40;;;;;;;9.98;3.75;;;;;;;;;;5036187;28;20036;-80
2023/02/18 09:26:09;;;;;;;13.43;5.00;;;;;;;;;;5035510;28;20544;-80
2023/02/18 09:28:35;;;;;;;10.02;3.53;;;;;;;;;;5031789;28;20083;-79
2023/02/18 09:31:12;;;;;;;10.68;4.57;;;;;;;;;;5035759;28;20089;-80
2023/02/18 09:33:41;;;;;;;11.25;3.25;;;;;;;;;;5031741;28;20072;-79
2023/02/18 09:36:06;;;;;;;8.75;3.67;;;;;;;;;;5035791;28;20031;-80
2023/02/18 09:38:32;;;;;;;10.15;4.05;;;;;;;;;;5029787;28;20029;-81
2023/02/18 09:41:00;;;;;;;8.60;3.17;;;;;;;;;;5031939;28;20484;-80
2023/02/18 09:43:42;;;;;;;9.10;3.50;;;;;;;;;;5034704;28;20409;-80
2023/02/18 09:46:34;;;;;;;8.23;2.70;;;;;;;;;;5034698;28;20032;-81
2023/02/18 09:49:10;;;;;;;8.20;2.28;;;;;;;;;;5034647;28;20309;-80
2023/02/18 09:51:36;;;;;;;7.88;2.60;;;;;;;;;;5035430;28;20017;-80
2023/02/18 09:54:01;;;;;;;6.82;2.30;;;;;;;;;;5034910;28;20036;-80
2023/02/18 09:56:31;;;;;;;9.55;2.65;;;;;;;;;;5032284;28;20060;-80
2023/02/18 09:58:58;;;;;;;8.55;2.30;;;;;;;;;;5033728;28;20112;-80
2023/02/18 10:01:36;;;;;;;10.00;2.90;;;;;;;;;;5027381;28;20025;-80
2023/02/18 10:04:22;;;;;;;8.80;2.80;;;;;;;;;;5033254;28;20037;-80
2023/02/18 10:06:50;;;;;;;4.45;2.22;;;;;;;;;;5034539;28;20024;-80
2023/02/18 10:09:21;;;;;;;7.60;2.40;;;;;;;;;;5034383;28;20578;-80
2023/02/18 10:11:54;;;;;;;9.18;2.60;;;;;;;;;;5034912;28;20389;-80
2023/02/18 10:14:19;;;;;;;7.75;2.30;;;;;;;;;;5032635;28;20059;-81
2023/02/18 10:16:47;;;;;;;5.45;1.67;;;;;;;;;;5033803;28;20021;-80
2023/02/18 10:19:28;;;;;;;9.55;2.28;;;;;;;;;;5033313;28;20428;-80
2023/02/18 10:21:54;;;;;;;4.47;1.75;;;;;;;;;;5035015;28;20504;-80
2023/02/18 10:24:28;;;;;;;7.75;1.77;;;;;;;;;;5030762;28;20061;-80
2023/02/18 10:26:54;;;;;;;8.27;2.20;;;;;;;;;;5034043;28;20016;-81
2023/02/18 10:29:20;;;;;;;4.72;2.45;;;;;;;;;;5033670;28;20412;-81
2023/02/18 10:32:05;;;;;;;7.03;2.10;;;;;;;;;;5035183;28;20120;-81
2023/02/18 10:34:48;;;;;;;6.30;2.10;;;;;;;;;;5025015;28;20083;-81
2023/02/18 10:37:46;;;;;;;6.40;2.20;;;;;;;;;;5034512;28;20028;-81
2023/02/18 10:40:23;;;;;;;5.50;2.15;;;;;;;;;;5032465;28;20040;-81
2023/02/18 10:43:05;;;;;;;7.32;1.92;;;;;;;;;;5034267;28;20025;-81
2023/02/18 10:46:06;;;;;;;5.68;1.60;;;;;;;;;;5029898;28;20025;-80
2023/02/18 10:48:55;;;;;;;7.30;2.40;;;;;;;;;;5007443;28;20044;-81
2023/02/18 10:51:24;;;;;;;5.07;2.13;;;;;;;;;;5032742;28;20025;-81
2023/02/18 10:53:51;;;;;;;6.00;2.30;;;;;;;;;;5033853;28;20025;-80
2023/02/18 10:56:47;;;;;;;3.25;1.98;;;;;;;;;;5027850;28;20083;-81
2023/02/18 10:59:24;;;;;;;6.95;2.38;;;;;;;;;;5031162;28;20033;-81
2023/02/18 11:02:00;;;;;;;7.90;2.33;;;;;;;;;;5032161;28;20036;-81
2023/02/18 11:04:39;;;;;;;6.03;2.00;;;;;;;;;;5030079;28;20553;-81
2023/02/18 11:07:30;;;;;;;5.40;2.03;;;;;;;;;;5032699;28;20040;-81
2023/02/18 11:09:59;;;;;;;3.72;1.70;;;;;;;;;;5033550;28;20397;-81
2023/02/18 11:12:26;;;;;;;4.72;1.75;;;;;;;;;;5032986;28;20025;-81
2023/02/18 11:15:13;;;;;;;4.22;1.73;;;;;;;;;;5032981;28;20432;-81
2023/02/18 11:17:43;;;;;;;6.55;1.80;;;;;;;;;;5035305;28;20025;-83
2023/02/18 11:20:35;;;;;;;5.45;2.03;;;;;;;;;;5034527;28;20452;-82
2023/02/18 11:23:06;;;;;;;5.47;1.85;;;;;;;;;;5030706;28;20029;-80
2023/02/18 11:25:34;;;;;;;4.93;1.88;;;;;;;;;;5028698;28;20026;-81
2023/02/18 11:28:22;;;;;;;7.30;1.77;;;;;;;;;;5033699;28;20021;-81
2023/02/18 11:30:54;;;;;;;4.70;1.70;;;;;;;;;;5024761;28;20040;-81
2023/02/18 11:33:33;;;;;;;6.60;1.70;;;;;;;;;;5031853;28;20033;-81
2023/02/18 11:36:05;;;;;;;7.22;1.80;;;;;;;;;;5032258;28;20473;-80
2023/02/18 11:38:36;;;;;;;6.55;1.60;;;;;;;;;;5034019;28;20025;-81
2023/02/18 11:41:13;;;;;;;6.25;1.90;;;;;;;;;;5038176;28;20060;-81
2023/02/18 11:43:46;;;;;;;8.23;2.28;;;;;;;;;;5031909;28;20029;-81
2023/02/18 11:46:15;;;;;;;5.13;1.77;;;;;;;;;;5032212;28;20025;-81
2023/02/18 11:48:41;;;;;;;8.80;2.00;;;;;;;;;;5033641;28;20021;-82
2023/02/18 11:51:18;;;;;;;8.27;1.95;;;;;;;;;;5032003;28;20060;-81
2023/02/18 11:53:54;;;;;;;5.25;1.52;;;;;;;;;;5032401;28;20026;-81
2023/02/18 11:56:20;;;;;;;8.35;1.92;;;;;;;;;;5031453;28;20053;-81
2023/02/18 11:58:47;;;;;;;6.25;1.42;;;;;;;;;;5032119;28;20059;-81
2023/02/18 12:01:43;;;;;;;4.35;1.70;;;;;;;;;;5030328;28;20075;-81
2023/02/18 12:04:24;;;;;;;9.73;2.08;;;;;;;;;;5045334;28;20092;-81
2023/02/18 12:07:25;;;;;;;6.63;1.90;;;;;;;;;;5032937;28;20049;-81
2023/02/18 12:09:55;;;;;;;7.63;2.03;;;;;;;;;;5030997;28;20033;-81
2023/02/18 12:12:42;;;;;;;6.53;1.85;;;;;;;;;;5032646;28;20025;-81
2023/02/18 12:15:12;;;;;;;5.80;1.67;;;;;;;;;;5028570;28;20481;-81
2023/02/18 12:18:05;;;;;;;6.88;1.70;;;;;;;;;;5031753;28;20505;-81
2023/02/18 12:21:11;;;;;;;5.95;1.98;;;;;;;;;;5029784;28;20025;-81
2023/02/18 12:23:39;;;;;;;9.88;2.00;;;;;;;;;;5028681;28;20470;-81
2023/02/18 12:26:25;;;;;;;6.07;1.70;;;;;;;;;;5026046;28;20076;-81
2023/02/18 12:29:18;;;;;;;6.18;1.77;;;;;;;;;;5032922;28;20384;-81
2023/02/18 12:32:14;;;;;;;7.85;1.77;;;;;;;;;;5034462;28;20068;-81
2023/02/18 12:34:49;;;;;;;6.75;1.70;;;;;;;;;;5035375;28;20021;-81
2023/02/18 12:37:34;;;;;;;4.28;1.50;;;;;;;;;;5035874;28;20366;-81
2023/02/18 12:40:35;;;;;;;8.82;1.90;;;;;;;;;;5021221;28;20029;-80
2023/02/18 12:43:35;;;;;;;6.80;1.58;;;;;;;;;;5021303;28;20048;-81
2023/02/18 12:46:10;;;;;;;7.43;2.00;;;;;;;;;;5036849;28;20049;-81
2023/02/18 12:48:54;;;;;;;5.13;1.73;;;;;;;;;;5038196;28;20021;-81
2023/02/18 12:51:35;;;;;;;6.28;1.65;;;;;;;;;;5028000;28;20281;-81
2023/02/18 12:54:29;;;;;;;4.45;1.67;;;;;;;;;;5031389;28;20029;-81
2023/02/18 12:57:23;;;;;;;6.95;1.98;;;;;;;;;;5033441;28;20068;-82
2023/02/18 12:59:57;;;;;;;;;;;;;;;;;;5026615;28;20032;-81
2023/02/18 13:02:43;;;;;;;4.22;1.45;;;;;;;;;;5035151;28;19959;-81
2023/02/18 13:05:35;;;;;;;5.65;2.03;;;;;;;;;;5035118;28;20079;-81
2023/02/18 13:08:30;;;;;;;6.75;1.73;;;;;;;;;;5025896;28;20083;-81
2023/02/18 13:11:12;;;;;;;6.47;2.25;;;;;;;;;;5034791;28;20060;-80
2023/02/18 13:13:44;;;;;;;9.68;2.58;;;;;;;;;;5041425;28;20028;-81
2023/02/18 13:16:16;;;;;;;9.57;2.83;;;;;;;;;;5036174;28;20133;-81
2023/02/18 13:18:49;;;;;;;8.43;2.03;;;;;;;;;;5036854;28;20544;-82
2023/02/18 13:21:16;;;;;;;7.20;2.03;;;;;;;;;;5033976;28;20028;-82
2023/02/18 13:24:04;;;;;;;8.27;2.05;;;;;;;;;;5034525;28;20575;-82
2023/02/18 13:26:32;;;;;;;4.93;1.90;;;;;;;;;;5030993;28;20026;-81
2023/02/18 13:29:21;;;;;;;4.45;1.88;;;;;;;;;;5031800;28;20033;-80
2023/02/18 13:32:29;;;;;;;5.93;1.90;;;;;;;;;;5047736;28;20037;-82
2023/02/18 13:35:03;;;;;;;6.10;2.00;;;;;;;;;;5027333;28;20112;-82
2023/02/18 13:38:01;;;;;;;4.72;1.85;;;;;;;;;;5035623;28;20473;-81
2023/02/18 13:40:29;;;;;;;7.50;2.38;;;;;;;;;;5026794;28;20029;-82
2023/02/18 13:43:17;;;;;;;8.35;1.98;;;;;;;;;;5029969;28;20060;-82
2023/02/18 13:45:42;;;;;;;8.43;2.60;;;;;;;;;;5025440;28;20448;-82
2023/02/18 13:48:27;;;;;;;10.13;2.05;;;;;;;;;;5035502;28;20051;-81
2023/02/18 13:50:58;;;;;;;7.82;2.10;;;;;;;;;;5034435;28;20033;-82
2023/02/18 13:53:24;;;;;;;9.00;2.08;;;;;;;;;;5034937;28;20326;-82
2023/02/18 13:56:00;;;;;;;7.32;1.80;;;;;;;;;;5035275;28;20071;-81
2023/02/18 13:58:40;;;;;;;7.88;1.90;;;;;;;;;;5034043;28;20021;-84
2023/02/18 14:01:09;;;;;;;5.82;1.80;;;;;;;;;;5026901;28;20022;-81
2023/02/18 14:03:43;;;;;;;7.30;1.80;;;;;;;;;;5034719;28;20087;-81
2023/02/18 14:06:16;;;;;;;6.32;1.60;;;;;;;;;;5024506;28;20022;-81
2023/02/18 14:08:43;;;;;;;6.68;1.67;;;;;;;;;;5033052;28;20056;-82
2023/02/18 14:11:11;;;;;;;8.23;2.00;;;;;;;;;;5028643;28;20030;-81
2023/02/18 14:13:59;;;;;;;5.85;1.98;;;;;;;;;;5024979;28;20493;-82
2023/02/18 14:16:24;;;;;;;8.80;2.17;;;;;;;;;;5018445;28;20596;-82
2023/02/18 14:18:55;;;;;;;3.17;1.73;;;;;;;;;;5034473;28;20299;-82
2023/02/18 14:21:35;;;;;;;9.07;2.35;;;;;;;;;;5022596;28;20025;-82
2023/02/18 14:24:02;;;;;;;7.03;1.88;;;;;;;;;;5034796;28;20061;-81
2023/02/18 14:26:34;;;;;;;9.93;2.10;;;;;;;;;;5033115;28;20473;-82
2023/02/18 14:29:01;;;;;;;7.95;2.28;;;;;;;;;;5034036;28;20127;-82
2023/02/18 14:31:36;;;;;;;6.55;2.20;;;;;;;;;;5033516;28;20056;-82
2023/02/18 14:34:16;;;;;;;7.68;1.85;;;;;;;;;;5033242;28;20029;-81
2023/02/18 14:36:54;;;;;;;6.32;1.63;;;;;;;;;;5024175;28;20032;-81
2023/02/18 14:39:48;;;;;;;5.65;2.00;;;;;;;;;;5021122;28;20053;-81
2023/02/18 14:42:32;;;;;;;6.55;2.15;;;;;;;;;;5033803;28;20021;-81
2023/02/18 14:45:12;;;;;;;8.88;2.22;;;;;;;;;;5034887;28;20120;-80
2023/02/18 14:48:01;;;;;;;8.20;2.00;;;;;;;;;;5032078;28;20052;-82
2023/02/18 14:50:31;;;;;;;5.47;2.30;;;;;;;;;;5030845;28;20041;-82
2023/02/18 14:53:02;;;;;;;5.80;2.00;;;;;;;;;;5031482;28;20025;-81
2023/02/18 14:55:37;;;;;;;6.88;1.98;;;;;;;;;;5032720;28;20033;-82
2023/02/18 14:58:25;;;;;;;7.00;2.10;;;;;;;;;;5033431;28;20025;-81
2023/02/18 15:00:50;;;;;;;7.30;2.05;;;;;;;;;;5020466;28;20041;-82
2023/02/18 15:03:21;;;;;;;7.80;2.08;;;;;;;;;;5032297;28;20021;-82